createdAt,value
2018-08-28T00:00:56.796Z,56.10
2018-08-28T00:03:24.887Z,56.00
2018-08-28T00:05:52.516Z,56.40
2018-08-28T00:08:20.129Z,56.20
2018-08-28T00:10:47.718Z,55.70
2018-08-28T00:13:15.397Z,55.10
2018-08-28T00:15:43.091Z,55.70
2018-08-28T00:18:10.680Z,56.70
2018-08-28T00:20:38.375Z,59.00
2018-08-28T00:23:06.036Z,60.80
2018-08-28T00:25:33.781Z,62.40
2018-08-28T00:28:02.257Z,61.50
2018-08-28T00:30:29.836Z,63.30
2018-08-28T00:32:57.454Z,64.40
2018-08-28T00:35:25.219Z,66.20
2018-08-28T00:37:52.815Z,66.50
2018-08-28T00:40:20.388Z,63.60
2018-08-28T00:42:48.067Z,61.10
2018-08-28T00:45:15.631Z,62.00
2018-08-28T00:47:44.164Z,61.50
2018-08-28T00:50:11.888Z,61.50
2018-08-28T00:52:39.515Z,62.70
2018-08-28T00:55:07.239Z,63.70
2018-08-28T00:57:34.896Z,65.00
2018-08-28T01:00:02.483Z,65.00
2018-08-28T01:02:30.163Z,66.40
2018-08-28T01:04:57.783Z,66.10
2018-08-28T01:07:25.377Z,66.70
2018-08-28T01:09:52.986Z,66.60
2018-08-28T01:12:20.580Z,67.60
2018-08-28T01:14:48.227Z,67.30
2018-08-28T01:17:15.758Z,65.90
2018-08-28T01:19:43.385Z,64.40
2018-08-28T01:22:10.999Z,65.20
2018-08-28T01:24:38.594Z,65.30
2018-08-28T01:27:05.951Z,66.00
2018-08-28T01:29:33.551Z,66.40
2018-08-28T01:32:01.140Z,65.90
2018-08-28T01:34:28.739Z,66.30
2018-08-28T01:36:56.319Z,66.20
2018-08-28T01:39:23.907Z,66.40
2018-08-28T01:41:51.511Z,66.10
2018-08-28T01:44:19.223Z,65.70
2018-08-28T01:46:46.899Z,65.90
2018-08-28T01:49:14.571Z,65.60
2018-08-28T01:51:42.863Z,65.00
2018-08-28T01:54:10.440Z,64.70
2018-08-28T01:56:38.122Z,66.50
2018-08-28T01:59:05.696Z,62.10
2018-08-28T02:01:33.324Z,61.70
2018-08-28T02:04:01.039Z,62.50
2018-08-28T02:06:28.678Z,64.40
2018-08-28T02:08:56.311Z,62.10
2018-08-28T02:11:24.352Z,59.80
2018-08-28T02:13:51.948Z,62.70
2018-08-28T02:16:19.519Z,61.70
2018-08-28T02:18:47.122Z,59.30
2018-08-28T02:21:14.693Z,58.80
2018-08-28T02:23:43.103Z,58.80
2018-08-28T02:26:10.788Z,58.30
2018-08-28T02:28:38.371Z,58.30
2018-08-28T02:31:06.007Z,56.80
2018-08-28T02:33:34.421Z,58.10
2018-08-28T02:36:02.221Z,57.80
2018-08-28T02:38:29.864Z,57.20
2018-08-28T02:40:57.463Z,56.90
2018-08-28T02:43:26.050Z,56.90
2018-08-28T02:45:53.729Z,56.80
2018-08-28T02:48:21.359Z,56.40
2018-08-28T02:50:49.233Z,56.40
2018-08-28T02:53:16.879Z,56.20
2018-08-28T02:55:44.482Z,55.80
2018-08-28T02:58:12.116Z,56.40
2018-08-28T03:00:40.608Z,56.40
2018-08-28T03:03:08.267Z,56.10
2018-08-28T03:05:35.988Z,55.60
2018-08-28T03:08:03.631Z,58.70
2018-08-28T03:10:31.316Z,58.90
2018-08-28T03:12:59.652Z,58.10
2018-08-28T03:15:27.269Z,57.50
2018-08-28T03:17:54.830Z,56.30
2018-08-28T03:20:22.448Z,56.60
2018-08-28T03:22:50.048Z,58.40
2018-08-28T03:25:17.631Z,59.80
2018-08-28T03:27:45.343Z,60.30
2018-08-28T03:30:13.032Z,61.70
2018-08-28T03:32:40.689Z,62.20
2018-08-28T03:35:08.309Z,60.50
2018-08-28T03:37:35.887Z,59.40
2018-08-28T03:40:03.786Z,58.10
2018-08-28T03:42:31.384Z,58.40
2018-08-28T03:44:58.948Z,59.00
2018-08-28T03:47:26.584Z,58.60
2018-08-28T03:49:54.176Z,57.00
2018-08-28T03:52:21.816Z,58.00
2018-08-28T03:54:49.454Z,57.20
2018-08-28T03:57:17.081Z,57.20
2018-08-28T03:59:44.680Z,56.10
2018-08-28T04:02:12.423Z,58.90
2018-08-28T04:04:40.036Z,57.00
2018-08-28T04:07:07.620Z,59.20
2018-08-28T04:09:35.742Z,59.80
2018-08-28T04:12:03.955Z,58.70
2018-08-28T04:14:31.576Z,58.20
2018-08-28T04:16:59.178Z,57.80
2018-08-28T04:19:27.283Z,57.40
2018-08-28T04:21:55.037Z,55.80
2018-08-28T04:24:23.485Z,57.30
2018-08-28T04:26:51.283Z,57.50
2018-08-28T04:29:18.889Z,57.30
2018-08-28T04:31:47.423Z,56.10
2018-08-28T04:34:15.149Z,56.90
2018-08-28T04:36:42.696Z,58.10
2018-08-28T04:39:10.335Z,57.70
2018-08-28T04:41:37.924Z,56.90
2018-08-28T04:44:05.628Z,57.10
2018-08-28T04:46:33.231Z,56.70
2018-08-28T04:49:00.965Z,56.50
2018-08-28T04:51:28.645Z,56.00
2018-08-28T04:53:57.071Z,56.10
2018-08-28T04:56:24.675Z,55.40
2018-08-28T04:58:52.329Z,55.10
2018-08-28T05:01:19.952Z,56.00
2018-08-28T05:03:47.620Z,56.30
2018-08-28T05:06:15.220Z,56.50
2018-08-28T05:08:42.839Z,56.50
2018-08-28T05:11:10.491Z,56.10
2018-08-28T05:13:38.187Z,55.90
2018-08-28T05:16:05.855Z,55.70
2018-08-28T05:18:33.823Z,55.40
2018-08-28T05:21:01.527Z,55.20
2018-08-28T05:23:29.238Z,55.10
2018-08-28T05:25:56.812Z,54.60
2018-08-28T05:28:24.502Z,53.10
2018-08-28T05:30:52.109Z,56.10
2018-08-28T05:33:19.711Z,59.20
2018-08-28T05:35:47.283Z,59.00
2018-08-28T05:38:14.927Z,58.10
2018-08-28T05:40:42.519Z,56.50
2018-08-28T05:43:10.197Z,56.50
2018-08-28T05:45:37.886Z,57.00
2018-08-28T05:48:05.599Z,57.10
2018-08-28T05:50:33.195Z,56.60
2018-08-28T05:53:00.766Z,56.20
2018-08-28T05:55:28.368Z,56.50
2018-08-28T05:57:55.948Z,55.90
2018-08-28T06:00:23.524Z,55.50
2018-08-28T06:02:51.179Z,55.40
2018-08-28T06:05:18.756Z,55.20
2018-08-28T06:07:46.340Z,54.90
2018-08-28T06:10:13.967Z,54.60
2018-08-28T06:12:41.532Z,54.40
2018-08-28T06:15:09.192Z,54.60
2018-08-28T06:17:36.804Z,53.90
2018-08-28T06:20:04.871Z,53.80
2018-08-28T06:22:33.414Z,53.60
2018-08-28T06:25:00.999Z,53.10
2018-08-28T06:27:28.604Z,54.40
2018-08-28T06:29:56.237Z,54.00
2018-08-28T06:32:23.796Z,53.50
2018-08-28T06:34:51.463Z,54.00
2018-08-28T06:37:19.503Z,55.10
2018-08-28T06:39:47.244Z,56.60
2018-08-28T06:42:14.830Z,57.10
2018-08-28T06:44:42.412Z,57.80
2018-08-28T06:47:10.055Z,55.20
2018-08-28T06:49:37.961Z,56.00
2018-08-28T06:52:05.559Z,56.00
2018-08-28T06:54:33.283Z,55.50
2018-08-28T06:57:01.176Z,54.50
2018-08-28T06:59:28.543Z,54.20
2018-08-28T07:01:56.171Z,53.90
2018-08-28T07:04:23.867Z,53.70
2018-08-28T07:06:51.476Z,53.40
2018-08-28T07:09:19.088Z,53.90
2018-08-28T07:11:46.714Z,54.40
2018-08-28T07:14:14.328Z,54.70
2018-08-28T07:16:42.028Z,55.20
2018-08-28T07:19:09.636Z,54.10
2018-08-28T07:21:37.508Z,53.40
2018-08-28T07:24:05.375Z,52.50
2018-08-28T07:26:32.947Z,51.50
2018-08-28T07:29:00.631Z,50.80
2018-08-28T07:31:28.287Z,51.00
2018-08-28T07:33:55.888Z,50.70
2018-08-28T07:36:23.599Z,52.00
2018-08-28T07:38:51.247Z,52.20
2018-08-28T07:41:19.543Z,51.50
2018-08-28T07:43:47.251Z,50.90
2018-08-28T07:46:14.827Z,50.60
2018-08-28T07:48:42.492Z,49.20
2018-08-28T07:51:10.143Z,47.70
2018-08-28T07:53:37.730Z,46.80
2018-08-28T07:56:05.580Z,48.20
2018-08-28T07:58:33.217Z,45.80
2018-08-28T08:01:00.904Z,47.90
2018-08-28T08:03:28.535Z,47.90
2018-08-28T08:05:56.184Z,45.60
2018-08-28T08:08:23.755Z,47.70
2018-08-28T08:10:52.412Z,47.40
2018-08-28T08:13:19.979Z,47.80
2018-08-28T08:15:47.908Z,47.50
2018-08-28T08:18:15.554Z,46.50
2018-08-28T08:20:43.172Z,46.30
2018-08-28T08:23:10.938Z,45.60
2018-08-28T08:25:39.048Z,44.20
2018-08-28T08:28:06.809Z,44.70
2018-08-28T08:30:34.336Z,45.20
2018-08-28T08:33:01.923Z,43.40
2018-08-28T08:35:29.529Z,43.40
2018-08-28T08:37:57.129Z,43.70
2018-08-28T08:40:24.731Z,44.10
2018-08-28T08:42:52.323Z,43.50
2018-08-28T08:45:19.945Z,44.00
2018-08-28T08:47:47.664Z,44.10
2018-08-28T08:50:15.377Z,43.20
2018-08-28T08:52:42.955Z,43.60
2018-08-28T08:55:10.664Z,43.60
2018-08-28T08:57:38.359Z,42.80
2018-08-28T09:00:06.032Z,41.60
2018-08-28T09:02:33.785Z,42.00
2018-08-28T09:05:01.393Z,40.80
2018-08-28T09:07:29.099Z,39.70
2018-08-28T09:09:56.736Z,38.90
2018-08-28T09:12:24.336Z,38.00
2018-08-28T09:14:51.952Z,36.50
2018-08-28T09:17:19.664Z,37.30
2018-08-28T09:19:47.285Z,37.20
2018-08-28T09:22:14.883Z,37.20
2018-08-28T09:24:42.497Z,35.10
2018-08-28T09:27:10.133Z,38.20
2018-08-28T09:29:37.875Z,38.40
2018-08-28T09:32:05.741Z,37.10
2018-08-28T09:34:34.153Z,37.60
2018-08-28T09:37:02.287Z,38.10
2018-08-28T09:39:29.857Z,38.50
2018-08-28T09:41:57.524Z,38.80
2018-08-28T09:44:25.116Z,38.70
2018-08-28T09:46:52.684Z,38.00
2018-08-28T09:49:20.869Z,37.60
2018-08-28T09:51:48.666Z,37.70
2018-08-28T09:54:16.423Z,38.20
2018-08-28T09:56:44.127Z,37.90
2018-08-28T09:59:11.727Z,37.50
2018-08-28T10:01:41.453Z,38.30
2018-08-28T10:04:10.398Z,36.60
2018-08-28T10:06:38.016Z,37.00
2018-08-28T10:09:08.016Z,38.20
2018-08-28T10:11:35.674Z,37.20
2018-08-28T10:14:04.148Z,36.30
2018-08-28T10:16:31.923Z,36.10
2018-08-28T10:18:59.795Z,33.40
2018-08-28T10:21:27.378Z,34.20
2018-08-28T10:23:54.984Z,31.40
2018-08-28T10:26:22.671Z,31.20
2018-08-28T10:28:50.304Z,32.80
2018-08-28T10:31:17.938Z,33.00
2018-08-28T10:33:45.523Z,32.50
2018-08-28T10:36:13.155Z,32.90
2018-08-28T10:38:40.812Z,31.20
2018-08-28T10:41:08.539Z,31.10
2018-08-28T10:43:36.115Z,32.90
2018-08-28T10:46:03.886Z,33.80
2018-08-28T10:48:32.171Z,34.30
2018-08-28T10:50:59.751Z,30.70
2018-08-28T10:53:27.448Z,34.20
2018-08-28T10:55:55.026Z,38.30
2018-08-28T10:58:22.629Z,38.90
2018-08-28T11:00:50.426Z,36.60
2018-08-28T11:03:18.027Z,35.90
2018-08-28T11:05:45.767Z,36.70
2018-08-28T11:08:13.380Z,38.80
2018-08-28T11:10:40.956Z,40.30
2018-08-28T11:13:08.966Z,41.40
2018-08-28T11:15:36.603Z,40.00
2018-08-28T11:18:04.555Z,41.30
2018-08-28T11:20:32.239Z,42.50
2018-08-28T11:23:01.226Z,41.90
2018-08-28T11:25:29.027Z,39.20
2018-08-28T11:27:56.667Z,37.10
2018-08-28T11:30:24.272Z,35.20
2018-08-28T11:32:51.923Z,35.00
2018-08-28T11:35:19.545Z,35.70
2018-08-28T11:37:47.188Z,37.10
2018-08-28T11:40:14.787Z,36.20
2018-08-28T11:42:42.360Z,35.30
2018-08-28T11:45:11.110Z,33.40
2018-08-28T11:47:38.695Z,32.40
2018-08-28T11:50:06.428Z,33.00
2018-08-28T11:52:33.999Z,35.50
2018-08-28T11:55:01.589Z,35.00
2018-08-28T11:57:30.221Z,34.50
2018-08-28T11:59:57.864Z,35.90
2018-08-28T12:02:25.442Z,35.30
2018-08-28T12:04:53.168Z,34.80
2018-08-28T12:07:20.832Z,35.00
2018-08-28T12:09:48.377Z,34.60
2018-08-28T12:12:15.990Z,39.50
2018-08-28T12:14:43.562Z,39.60
2018-08-28T12:17:11.199Z,41.20
2018-08-28T12:19:38.829Z,41.90
2018-08-28T12:22:06.506Z,40.60
2018-08-28T12:24:34.193Z,40.10
2018-08-28T12:27:01.927Z,41.50
2018-08-28T12:29:29.550Z,42.30
2018-08-28T12:31:57.129Z,42.80
2018-08-28T12:34:24.786Z,42.70
2018-08-28T12:36:52.642Z,42.40
2018-08-28T12:39:20.802Z,37.00
2018-08-28T12:41:48.393Z,41.30
2018-08-28T12:44:16.000Z,42.60
2018-08-28T12:46:43.678Z,43.20
2018-08-28T12:49:11.271Z,42.60
2018-08-28T12:51:39.001Z,41.80
2018-08-28T12:54:06.653Z,41.80
2018-08-28T12:56:34.691Z,40.90
2018-08-28T12:59:02.376Z,41.60
2018-08-28T13:01:29.980Z,41.80
2018-08-28T13:03:58.729Z,42.90
2018-08-28T13:06:26.895Z,42.00
2018-08-28T13:08:55.071Z,40.10
2018-08-28T13:11:22.779Z,35.40
2018-08-28T13:13:50.438Z,34.60
2018-08-28T13:16:18.017Z,34.50
2018-08-28T13:18:45.671Z,35.20
2018-08-28T13:21:13.247Z,36.20
2018-08-28T13:23:40.843Z,35.80
2018-08-28T13:26:08.524Z,36.40
2018-08-28T13:28:36.043Z,37.00
2018-08-28T13:31:03.929Z,36.70
2018-08-28T13:33:31.524Z,33.70
2018-08-28T13:35:59.108Z,34.10
2018-08-28T13:38:28.937Z,34.00
2018-08-28T13:40:56.512Z,34.80
2018-08-28T13:43:24.092Z,35.90
2018-08-28T13:45:51.873Z,36.20
2018-08-28T13:48:19.552Z,36.10
2018-08-28T13:50:47.133Z,33.60
2018-08-28T13:53:14.807Z,34.50
2018-08-28T13:55:42.461Z,35.50
2018-08-28T13:58:10.052Z,35.50
2018-08-28T14:00:37.674Z,36.20
2018-08-28T14:03:05.435Z,36.70
2018-08-28T14:05:33.180Z,37.00
2018-08-28T14:08:01.431Z,36.50
2018-08-28T14:10:29.047Z,37.30
2018-08-28T14:12:57.763Z,36.80
2018-08-28T14:15:25.399Z,37.30
2018-08-28T14:17:52.997Z,37.70
2018-08-28T14:20:20.573Z,37.70
2018-08-28T14:22:48.289Z,38.30
2018-08-28T14:25:15.869Z,38.50
2018-08-28T14:27:43.548Z,38.70
2018-08-28T14:30:11.162Z,38.70
2018-08-28T14:32:38.767Z,37.30
2018-08-28T14:35:06.505Z,33.90
2018-08-28T14:37:34.155Z,35.20
2018-08-28T14:40:01.762Z,36.20
2018-08-28T14:42:29.384Z,36.90
2018-08-28T14:44:57.038Z,36.90
2018-08-28T14:47:24.729Z,37.80
2018-08-28T14:49:52.481Z,36.70
2018-08-28T14:52:19.957Z,37.80
2018-08-28T14:54:47.543Z,36.00
2018-08-28T14:57:15.311Z,38.20
2018-08-28T14:59:42.892Z,36.40
2018-08-28T15:02:10.524Z,37.60
2018-08-28T15:04:38.184Z,38.70
2018-08-28T15:07:06.851Z,39.40
2018-08-28T15:09:34.423Z,39.50
2018-08-28T15:12:02.693Z,35.80
2018-08-28T15:14:30.288Z,38.30
2018-08-28T15:16:57.928Z,39.20
2018-08-28T15:19:25.497Z,35.90
2018-08-28T15:21:53.083Z,39.60
2018-08-28T15:24:20.734Z,37.10
2018-08-28T15:26:48.343Z,38.60
2018-08-28T15:29:16.035Z,39.60
2018-08-28T15:31:43.663Z,36.90
2018-08-28T15:34:11.273Z,37.50
2018-08-28T15:36:38.864Z,38.60
2018-08-28T15:39:07.041Z,39.70
2018-08-28T15:41:34.660Z,37.10
2018-08-28T15:44:02.279Z,35.80
2018-08-28T15:46:29.863Z,36.80
2018-08-28T15:48:58.020Z,39.70
2018-08-28T15:51:25.648Z,40.70
2018-08-28T15:53:53.195Z,40.40
2018-08-28T15:56:20.842Z,41.50
2018-08-28T15:58:49.401Z,42.50
2018-08-28T16:01:17.000Z,42.90
2018-08-28T16:03:44.600Z,42.80
2018-08-28T16:06:12.267Z,42.60
2018-08-28T16:08:40.011Z,43.00
2018-08-28T16:11:07.591Z,43.40
2018-08-28T16:13:35.192Z,43.60
2018-08-28T16:16:02.897Z,38.90
2018-08-28T16:18:30.524Z,40.30
2018-08-28T16:20:58.338Z,39.60
2018-08-28T16:23:28.179Z,42.30
2018-08-28T16:25:55.799Z,40.00
2018-08-28T16:28:23.654Z,42.10
2018-08-28T16:30:51.308Z,39.70
2018-08-28T16:33:18.968Z,40.80
2018-08-28T16:35:46.679Z,42.20
2018-08-28T16:38:14.242Z,44.80
2018-08-28T16:40:41.913Z,45.00
2018-08-28T16:43:09.499Z,45.50
2018-08-28T16:45:37.112Z,45.60
2018-08-28T16:48:05.127Z,46.30
2018-08-28T16:50:32.965Z,46.50
2018-08-28T16:53:00.528Z,46.40
2018-08-28T16:55:28.178Z,46.40
2018-08-28T16:57:55.804Z,46.90
2018-08-28T17:00:23.375Z,46.90
2018-08-28T17:02:50.995Z,46.80
2018-08-28T17:05:19.363Z,46.90
2018-08-28T17:07:47.075Z,47.00
2018-08-28T17:10:14.745Z,44.80
2018-08-28T17:12:42.335Z,45.50
2018-08-28T17:15:10.320Z,46.20
2018-08-28T17:17:38.784Z,46.20
2018-08-28T17:20:06.500Z,46.80
2018-08-28T17:22:34.083Z,47.50
2018-08-28T17:25:02.540Z,48.00
2018-08-28T17:27:30.165Z,48.70
2018-08-28T17:29:57.799Z,49.30
2018-08-28T17:32:26.207Z,49.60
2018-08-28T17:34:53.843Z,49.30
2018-08-28T17:37:21.481Z,49.20
2018-08-28T17:39:49.100Z,49.60
2018-08-28T17:42:16.693Z,49.30
2018-08-28T17:44:44.317Z,49.40
2018-08-28T17:47:11.918Z,48.40
2018-08-28T17:49:39.605Z,48.10
2018-08-28T17:52:07.229Z,48.30
2018-08-28T17:54:34.864Z,49.40
2018-08-28T17:57:02.537Z,46.50
2018-08-28T17:59:30.093Z,46.40
2018-08-28T18:01:57.837Z,48.90
2018-08-28T18:04:25.599Z,48.60
2018-08-28T18:06:53.932Z,48.30
2018-08-28T18:09:21.596Z,49.10
2018-08-28T18:11:49.219Z,49.10
2018-08-28T18:14:16.865Z,44.10
2018-08-28T18:16:45.773Z,43.20
2018-08-28T18:19:13.348Z,43.30
2018-08-28T18:21:40.992Z,42.90
2018-08-28T18:24:08.565Z,43.30
2018-08-28T18:26:36.176Z,45.30
2018-08-28T18:29:03.785Z,48.50
2018-08-28T18:31:31.396Z,47.50
2018-08-28T18:33:58.983Z,45.80
2018-08-28T18:36:26.633Z,43.30
2018-08-28T18:38:54.242Z,43.60
2018-08-28T18:41:21.964Z,43.70
2018-08-28T18:43:49.624Z,48.60
2018-08-28T18:46:17.232Z,45.40
2018-08-28T18:48:44.929Z,49.40
2018-08-28T18:51:13.087Z,50.70
2018-08-28T18:53:41.406Z,50.90
2018-08-28T18:56:09.098Z,47.90
2018-08-28T18:58:36.680Z,50.30
2018-08-28T19:01:04.300Z,50.90
2018-08-28T19:03:31.984Z,51.10
2018-08-28T19:05:59.598Z,51.10
2018-08-28T19:08:27.166Z,50.80
2018-08-28T19:10:54.785Z,51.10
2018-08-28T19:13:22.404Z,51.40
2018-08-28T19:15:50.047Z,51.50
2018-08-28T19:18:18.218Z,51.50
2018-08-28T19:20:45.838Z,51.50
2018-08-28T19:23:13.456Z,51.40
2018-08-28T19:25:41.088Z,51.30
2018-08-28T19:28:08.744Z,51.50
2018-08-28T19:30:36.494Z,51.60
2018-08-28T19:33:05.124Z,49.70
2018-08-28T19:35:32.873Z,49.80
2018-08-28T19:38:00.480Z,50.20
2018-08-28T19:40:28.160Z,49.70
2018-08-28T19:42:55.865Z,49.50
2018-08-28T19:45:23.608Z,49.30
2018-08-28T19:47:52.440Z,46.00
2018-08-28T19:50:20.249Z,46.70
2018-08-28T19:52:47.876Z,44.30
2018-08-28T19:55:15.621Z,45.40
2018-08-28T19:57:43.276Z,49.20
2018-08-28T20:00:11.197Z,46.00
2018-08-28T20:02:38.855Z,49.00
2018-08-28T20:05:07.357Z,45.90
2018-08-28T20:07:35.783Z,45.70
2018-08-28T20:10:06.048Z,45.80
2018-08-28T20:12:34.728Z,45.70
2018-08-28T20:15:02.443Z,48.10
2018-08-28T20:17:30.120Z,51.30
2018-08-28T20:19:57.679Z,52.70
2018-08-28T20:22:25.252Z,52.80
2018-08-28T20:24:52.914Z,51.70
2018-08-28T20:27:20.493Z,48.50
2018-08-28T20:29:48.253Z,48.70
2018-08-28T20:32:15.790Z,48.20
2018-08-28T20:34:43.995Z,51.90
2018-08-28T20:37:11.657Z,52.60
2018-08-28T20:39:39.230Z,52.50
2018-08-28T20:42:06.878Z,51.50
2018-08-28T20:44:34.508Z,52.30
2018-08-28T20:47:02.129Z,51.90
2018-08-28T20:49:29.783Z,50.80
2018-08-28T20:51:57.408Z,51.50
2018-08-28T20:54:25.167Z,51.90
2018-08-28T20:56:52.794Z,49.30
2018-08-28T20:59:20.427Z,51.70
2018-08-28T21:01:48.048Z,51.70
2018-08-28T21:04:15.668Z,49.70
2018-08-28T21:06:43.593Z,46.10
2018-08-28T21:09:11.132Z,49.50
2018-08-28T21:11:38.741Z,51.20
2018-08-28T21:14:06.484Z,51.50
2018-08-28T21:16:34.139Z,48.60
2018-08-28T21:19:02.512Z,49.50
2018-08-28T21:21:30.111Z,50.90
2018-08-28T21:23:58.538Z,46.30
2018-08-28T21:26:26.704Z,50.60
2018-08-28T21:28:54.549Z,51.30
2018-08-28T21:31:22.280Z,51.90
2018-08-28T21:33:49.962Z,50.60
2018-08-28T21:36:17.812Z,47.60
2018-08-28T21:38:45.408Z,51.40
2018-08-28T21:41:13.692Z,50.60
2018-08-28T21:43:41.300Z,49.50
2018-08-28T21:46:08.884Z,50.10
2018-08-28T21:48:36.597Z,50.70
2018-08-28T21:51:04.243Z,51.40
2018-08-28T21:53:31.851Z,52.10
2018-08-28T21:56:00.425Z,51.60
2018-08-28T21:58:28.036Z,52.40
2018-08-28T22:01:01.396Z,50.90
2018-08-28T22:03:29.703Z,47.30
2018-08-28T22:05:57.440Z,47.50
2018-08-28T22:08:25.141Z,52.20
2018-08-28T22:10:53.551Z,50.80
2018-08-28T22:13:21.761Z,46.60
2018-08-28T22:15:50.388Z,46.50
2018-08-28T22:18:17.997Z,47.50
2018-08-28T22:20:51.881Z,48.40
2018-08-28T22:23:19.571Z,48.30
2018-08-28T22:25:47.165Z,52.80
2018-08-28T22:28:14.905Z,48.20
2018-08-28T22:30:42.700Z,47.60
2018-08-28T22:33:10.504Z,49.30
2018-08-28T22:35:38.255Z,46.30
2018-08-28T22:38:05.939Z,52.90
2018-08-28T22:40:33.628Z,51.90
2018-08-28T22:43:01.291Z,52.00
2018-08-28T22:45:29.000Z,52.40
2018-08-28T22:47:56.680Z,52.50
2018-08-28T22:50:25.279Z,46.60
2018-08-28T22:52:53.756Z,50.50
2018-08-28T22:55:22.069Z,47.40
2018-08-28T22:57:49.713Z,45.80
2018-08-28T23:00:19.585Z,46.80
2018-08-28T23:02:47.185Z,48.30
2018-08-28T23:05:14.988Z,52.30
2018-08-28T23:07:43.240Z,51.40
2018-08-28T23:10:10.951Z,52.60
2018-08-28T23:12:38.596Z,47.30
2018-08-28T23:15:06.506Z,52.80
2018-08-28T23:17:34.149Z,47.40
2018-08-28T23:20:01.948Z,48.20
2018-08-28T23:22:29.690Z,47.70
2018-08-28T23:24:57.784Z,52.80
2018-08-28T23:27:25.380Z,48.70
2018-08-28T23:29:52.976Z,54.00
2018-08-28T23:32:20.567Z,52.70
2018-08-28T23:34:48.184Z,49.10
2018-08-28T23:37:15.783Z,48.70
2018-08-28T23:39:43.584Z,52.40
2018-08-28T23:42:11.898Z,52.60
2018-08-28T23:44:39.479Z,51.90
2018-08-28T23:47:07.204Z,49.10
2018-08-28T23:49:34.777Z,50.80
2018-08-28T23:52:02.444Z,51.90
2018-08-28T23:54:30.023Z,50.00
2018-08-28T23:56:57.719Z,51.00
2018-08-28T23:59:25.318Z,48.40
